createdAt,value
2018-12-01T00:01:36.315Z,7.70
2018-12-01T00:04:11.249Z,7.70
2018-12-01T00:06:45.423Z,7.70
2018-12-01T00:09:19.552Z,7.70
2018-12-01T00:11:53.691Z,7.80
2018-12-01T00:14:28.673Z,7.80
2018-12-01T00:17:02.887Z,7.80
2018-12-01T00:19:36.825Z,7.80
2018-12-01T00:22:11.256Z,7.70
2018-12-01T00:24:45.218Z,7.80
2018-12-01T00:27:19.348Z,7.80
2018-12-01T00:29:53.439Z,7.70
2018-12-01T00:32:27.736Z,7.80
2018-12-01T00:35:01.984Z,7.80
2018-12-01T00:37:36.157Z,7.70
2018-12-01T00:40:11.104Z,7.90
2018-12-01T00:42:45.572Z,7.80
2018-12-01T00:45:20.312Z,7.80
2018-12-01T00:47:55.004Z,7.70
2018-12-01T00:50:29.464Z,7.70
2018-12-01T00:53:04.723Z,7.70
2018-12-01T00:55:39.026Z,7.70
2018-12-01T00:58:13.080Z,7.70
2018-12-01T01:00:47.120Z,7.80
2018-12-01T01:03:21.926Z,7.90
2018-12-01T01:05:56.331Z,7.90
2018-12-01T01:08:30.587Z,7.90
2018-12-01T01:11:05.062Z,7.90
2018-12-01T01:13:38.984Z,8.00
2018-12-01T01:16:13.104Z,8.00
2018-12-01T01:18:47.164Z,7.90
2018-12-01T01:21:21.271Z,7.90
2018-12-01T01:23:56.243Z,7.80
2018-12-01T01:26:30.195Z,7.70
2018-12-01T01:29:04.171Z,7.60
2018-12-01T01:31:38.330Z,7.70
2018-12-01T01:34:12.364Z,7.80
2018-12-01T01:36:46.323Z,7.80
2018-12-01T01:39:21.284Z,7.80
2018-12-01T01:41:55.442Z,7.80
2018-12-01T01:44:29.842Z,7.70
2018-12-01T01:47:04.623Z,7.70
2018-12-01T01:49:38.895Z,7.70
2018-12-01T01:52:13.096Z,7.70
2018-12-01T01:54:47.296Z,7.80
2018-12-01T01:57:22.084Z,7.70
2018-12-01T01:59:56.333Z,7.70
2018-12-01T02:02:30.655Z,7.70
2018-12-01T02:05:05.845Z,7.70
2018-12-01T02:07:39.963Z,7.70
2018-12-01T02:10:14.058Z,7.80
2018-12-01T02:12:48.007Z,7.80
2018-12-01T02:15:23.134Z,7.70
2018-12-01T02:17:57.197Z,7.60
2018-12-01T02:20:31.689Z,7.60
2018-12-01T02:23:06.044Z,7.50
2018-12-01T02:25:40.223Z,7.60
2018-12-01T02:28:14.972Z,7.60
2018-12-01T02:30:49.241Z,7.50
2018-12-01T02:33:23.576Z,7.60
2018-12-01T02:35:57.632Z,7.60
2018-12-01T02:38:32.357Z,7.60
2018-12-01T02:41:07.195Z,7.60
2018-12-01T02:43:41.424Z,7.60
2018-12-01T02:49:22.744Z,7.60
2018-12-01T02:51:56.728Z,7.70
2018-12-01T02:54:30.795Z,8.00
2018-12-01T02:57:04.865Z,7.90
2018-12-01T02:59:39.001Z,7.80
2018-12-01T03:02:13.031Z,7.70
2018-12-01T03:04:47.052Z,7.50
2018-12-01T03:07:21.058Z,7.60
2018-12-01T03:09:55.068Z,7.50
2018-12-01T03:12:29.927Z,7.30
2018-12-01T03:15:04.148Z,7.20
2018-12-01T03:17:38.877Z,7.00
2018-12-01T03:20:12.891Z,6.90
2018-12-01T03:22:46.868Z,7.10
2018-12-01T03:25:20.992Z,7.10
2018-12-01T03:27:55.139Z,7.10
2018-12-01T03:30:29.265Z,7.10
2018-12-01T03:33:03.301Z,7.20
2018-12-01T03:35:37.340Z,7.20
2018-12-01T03:38:11.297Z,7.00
2018-12-01T03:40:45.368Z,7.10
2018-12-01T03:43:19.297Z,7.00
2018-12-01T03:45:54.024Z,7.00
2018-12-01T03:48:28.136Z,7.00
2018-12-01T03:51:06.081Z,7.20
2018-12-01T03:53:40.103Z,7.20
2018-12-01T03:56:13.988Z,7.10
2018-12-01T03:58:48.798Z,6.80
2018-12-01T04:01:23.646Z,6.90
2018-12-01T04:03:57.665Z,6.90
2018-12-01T04:06:31.815Z,7.00
2018-12-01T04:09:05.948Z,7.10
2018-12-01T04:11:40.084Z,7.20
2018-12-01T04:14:14.844Z,7.10
2018-12-01T04:16:48.753Z,7.10
2018-12-01T04:19:22.872Z,7.10
2018-12-01T04:21:57.028Z,7.00
2018-12-01T04:24:31.196Z,7.00
2018-12-01T04:27:05.288Z,7.00
2018-12-01T04:29:39.477Z,6.90
2018-12-01T04:32:13.616Z,6.90
2018-12-01T04:34:47.708Z,6.90
2018-12-01T04:37:21.659Z,7.00
2018-12-01T04:39:55.793Z,7.00
2018-12-01T04:42:29.702Z,7.10
2018-12-01T04:45:03.803Z,7.10
2018-12-01T04:47:37.830Z,7.00
2018-12-01T04:50:11.944Z,7.00
2018-12-01T04:52:45.924Z,6.90
2018-12-01T04:55:20.047Z,6.90
2018-12-01T04:57:54.905Z,6.80
2018-12-01T05:00:29.122Z,6.80
2018-12-01T05:03:03.189Z,6.80
2018-12-01T05:05:38.035Z,6.60
2018-12-01T05:08:12.144Z,6.60
2018-12-01T05:10:47.037Z,6.50
2018-12-01T05:13:21.018Z,6.40
2018-12-01T05:15:55.124Z,6.40
2018-12-01T05:18:29.249Z,6.40
2018-12-01T05:21:03.443Z,6.40
2018-12-01T05:23:37.482Z,6.30
2018-12-01T05:26:11.601Z,6.10
2018-12-01T05:28:46.519Z,6.30
2018-12-01T05:31:20.580Z,6.30
2018-12-01T05:33:54.537Z,6.40
2018-12-01T05:36:28.632Z,6.30
2018-12-01T05:39:02.734Z,6.30
2018-12-01T05:41:36.776Z,6.40
2018-12-01T05:44:10.926Z,6.30
2018-12-01T05:46:45.020Z,6.40
2018-12-01T05:49:19.172Z,6.40
2018-12-01T05:51:53.232Z,6.40
2018-12-01T05:54:27.361Z,6.30
2018-12-01T05:57:01.281Z,6.40
2018-12-01T05:59:35.362Z,6.50
2018-12-01T06:02:09.495Z,6.50
2018-12-01T06:04:43.551Z,6.50
2018-12-01T06:07:18.356Z,6.50
2018-12-01T06:09:53.112Z,6.70
2018-12-01T06:12:27.196Z,6.60
2018-12-01T06:15:01.166Z,6.70
2018-12-01T06:17:35.253Z,6.70
2018-12-01T06:20:09.215Z,6.70
2018-12-01T06:22:43.303Z,6.70
2018-12-01T06:25:17.356Z,6.70
2018-12-01T06:27:51.582Z,6.70
2018-12-01T06:30:25.801Z,6.80
2018-12-01T06:32:59.916Z,6.80
2018-12-01T06:35:34.091Z,7.00
2018-12-01T06:38:08.130Z,7.00
2018-12-01T06:40:42.227Z,7.10
2018-12-01T06:43:16.184Z,6.90
2018-12-01T06:45:50.248Z,6.70
2018-12-01T06:48:24.242Z,6.80
2018-12-01T06:50:58.225Z,6.70
2018-12-01T06:53:32.289Z,6.70
2018-12-01T06:56:06.264Z,6.80
2018-12-01T06:58:40.448Z,6.80
2018-12-01T07:01:14.415Z,6.80
2018-12-01T07:04:02.850Z,7.00
2018-12-01T07:06:36.975Z,6.90
2018-12-01T07:09:11.000Z,7.00
2018-12-01T07:11:45.070Z,6.90
2018-12-01T07:14:19.121Z,6.90
2018-12-01T07:16:53.271Z,7.00
2018-12-01T07:19:27.361Z,7.00
2018-12-01T07:22:01.423Z,6.90
2018-12-01T07:24:35.553Z,7.00
2018-12-01T07:27:10.361Z,7.10
2018-12-01T07:29:45.120Z,7.20
2018-12-01T07:32:19.222Z,7.20
2018-12-01T07:34:54.465Z,7.10
2018-12-01T07:37:28.568Z,7.20
2018-12-01T07:40:02.703Z,7.20
2018-12-01T07:42:36.813Z,7.30
2018-12-01T07:45:10.906Z,7.40
2018-12-01T07:47:44.994Z,7.40
2018-12-01T07:50:19.132Z,7.40
2018-12-01T07:52:53.190Z,7.40
2018-12-01T07:55:27.180Z,7.30
2018-12-01T07:58:01.260Z,7.40
2018-12-01T08:00:35.380Z,7.40
2018-12-01T08:03:09.489Z,7.40
2018-12-01T08:05:44.344Z,7.60
2018-12-01T08:08:18.384Z,7.60
2018-12-01T08:10:52.473Z,7.60
2018-12-01T08:13:26.624Z,7.70
2018-12-01T08:16:00.759Z,7.60
2018-12-01T08:18:34.732Z,7.70
2018-12-01T08:21:09.640Z,7.80
2018-12-01T08:23:43.681Z,7.80
2018-12-01T08:26:17.784Z,7.90
2018-12-01T08:28:51.860Z,8.00
2018-12-01T08:31:25.929Z,8.00
2018-12-01T08:33:59.988Z,8.10
2018-12-01T08:36:34.121Z,8.10
2018-12-01T08:39:08.973Z,8.10
2018-12-01T08:41:43.832Z,8.00
2018-12-01T08:44:18.720Z,8.20
2018-12-01T08:46:53.510Z,8.10
2018-12-01T08:49:28.378Z,8.10
2018-12-01T08:52:03.213Z,8.10
2018-12-01T08:54:37.296Z,8.10
2018-12-01T08:57:11.392Z,8.10
2018-12-01T08:59:45.463Z,8.20
2018-12-01T09:02:19.589Z,8.10
2018-12-01T09:04:53.641Z,8.10
2018-12-01T09:07:28.493Z,8.20
2018-12-01T09:10:02.615Z,8.20
2018-12-01T09:12:37.468Z,8.30
2018-12-01T09:15:11.665Z,8.30
2018-12-01T09:17:45.757Z,8.40
2018-12-01T09:20:20.621Z,8.50
2018-12-01T09:22:55.435Z,8.70
2018-12-01T09:25:30.340Z,8.60
2018-12-01T09:28:04.296Z,8.60
2018-12-01T09:30:38.358Z,8.50
2018-12-01T09:33:12.495Z,8.70
2018-12-01T09:35:47.214Z,9.00
2018-12-01T09:38:21.372Z,9.00
2018-12-01T09:40:55.464Z,9.00
2018-12-01T09:43:29.564Z,9.00
2018-12-01T09:46:03.674Z,8.90
2018-12-01T09:48:37.797Z,9.10
2018-12-01T09:51:11.924Z,9.30
2018-12-01T09:53:46.193Z,9.30
2018-12-01T09:56:20.360Z,9.70
2018-12-01T09:58:54.331Z,9.60
2018-12-01T10:01:28.488Z,9.70
2018-12-01T10:04:02.502Z,9.50
2018-12-01T10:06:37.213Z,9.40
2018-12-01T10:09:11.308Z,9.40
2018-12-01T10:11:50.458Z,9.30
2018-12-01T10:14:20.978Z,9.30
2018-12-01T10:16:55.833Z,9.40
2018-12-01T10:19:29.921Z,9.40
2018-12-01T10:22:04.065Z,9.70
2018-12-01T10:24:38.137Z,10.00
2018-12-01T10:27:13.022Z,10.20
2018-12-01T10:29:47.003Z,10.20
2018-12-01T10:32:21.188Z,10.20
2018-12-01T10:34:55.355Z,10.00
2018-12-01T10:37:29.514Z,10.10
2018-12-01T10:40:03.683Z,10.00
2018-12-01T10:42:37.646Z,9.70
2018-12-01T10:45:11.695Z,9.50
2018-12-01T10:47:45.716Z,9.60
2018-12-01T10:50:19.803Z,9.80
2018-12-01T10:52:53.897Z,9.90
2018-12-01T10:55:28.006Z,9.60
2018-12-01T10:58:02.737Z,9.50
2018-12-01T11:00:36.847Z,9.50
2018-12-01T11:03:10.940Z,9.40
2018-12-01T11:05:45.081Z,9.50
2018-12-01T11:08:19.936Z,9.50
2018-12-01T11:10:55.392Z,9.50
2018-12-01T11:13:27.940Z,9.80
2018-12-01T11:16:02.787Z,9.40
2018-12-01T11:18:36.861Z,9.40
2018-12-01T11:21:10.987Z,9.50
2018-12-01T11:23:45.097Z,9.40
2018-12-01T11:26:19.219Z,9.50
2018-12-01T11:28:53.324Z,9.60
2018-12-01T11:31:27.441Z,9.80
2018-12-01T11:34:01.509Z,9.80
2018-12-01T11:36:35.640Z,9.80
2018-12-01T11:39:09.687Z,10.10
2018-12-01T11:41:43.830Z,10.30
2018-12-01T11:44:17.934Z,10.50
2018-12-01T11:46:52.000Z,10.60
2018-12-01T11:49:26.041Z,10.40
2018-12-01T11:52:00.098Z,10.50
2018-12-01T11:54:34.894Z,10.90
2018-12-01T11:57:09.007Z,10.90
2018-12-01T11:59:43.048Z,10.70
2018-12-01T12:02:17.217Z,10.50
2018-12-01T12:04:52.322Z,10.60
2018-12-01T12:10:26.184Z,10.80
2018-12-01T12:13:00.300Z,10.80
2018-12-01T12:15:34.354Z,11.10
2018-12-01T12:18:08.452Z,11.10
2018-12-01T12:20:42.501Z,11.20
2018-12-01T12:23:17.166Z,11.30
2018-12-01T12:25:51.410Z,11.30
2018-12-01T12:28:25.559Z,11.10
2018-12-01T12:30:59.712Z,11.30
2018-12-01T12:33:33.838Z,11.30
2018-12-01T12:36:07.824Z,11.40
2018-12-01T12:38:42.047Z,11.40
2018-12-01T12:41:16.080Z,11.30
2018-12-01T12:43:50.061Z,11.20
2018-12-01T12:46:24.124Z,11.00
2018-12-01T12:48:58.838Z,10.70
2018-12-01T12:51:32.941Z,10.70
2018-12-01T12:54:06.950Z,10.30
2018-12-01T12:56:41.044Z,10.50
2018-12-01T12:59:15.264Z,10.40
2018-12-01T13:01:49.421Z,10.30
2018-12-01T13:04:23.368Z,10.40
2018-12-01T13:06:57.489Z,10.30
2018-12-01T13:09:31.613Z,10.40
2018-12-01T13:12:06.470Z,10.50
2018-12-01T13:14:40.554Z,10.50
2018-12-01T13:17:14.659Z,10.50
2018-12-01T13:19:48.697Z,10.50
2018-12-01T13:22:22.795Z,10.40
2018-12-01T13:24:57.665Z,10.30
2018-12-01T13:27:31.779Z,10.20
2018-12-01T13:30:05.995Z,10.30
2018-12-01T13:32:40.712Z,10.40
2018-12-01T13:35:14.827Z,10.30
2018-12-01T13:37:48.935Z,10.40
2018-12-01T13:40:23.081Z,10.60
2018-12-01T13:42:57.080Z,10.50
2018-12-01T13:45:31.900Z,10.40
2018-12-01T13:48:05.964Z,10.40
2018-12-01T13:50:40.037Z,10.30
2018-12-01T13:53:14.137Z,10.30
2018-12-01T13:55:48.126Z,10.20
2018-12-01T13:58:22.208Z,10.20
2018-12-01T14:00:56.246Z,10.10
2018-12-01T14:03:31.062Z,10.30
2018-12-01T14:06:05.156Z,10.30
2018-12-01T14:08:39.120Z,10.30
2018-12-01T14:11:13.200Z,10.40
2018-12-01T14:13:48.123Z,10.50
2018-12-01T14:16:22.140Z,10.50
2018-12-01T14:18:56.984Z,10.30
2018-12-01T14:21:31.092Z,10.30
2018-12-01T14:24:05.233Z,10.30
2018-12-01T14:26:39.300Z,10.30
2018-12-01T14:29:13.332Z,10.20
2018-12-01T14:31:47.403Z,10.20
2018-12-01T14:34:21.489Z,10.10
2018-12-01T14:36:55.650Z,9.90
2018-12-01T14:39:29.676Z,9.80
2018-12-01T14:42:03.857Z,9.70
2018-12-01T14:44:37.878Z,9.70
2018-12-01T14:47:11.929Z,9.70
2018-12-01T14:49:45.866Z,9.60
2018-12-01T14:52:19.840Z,9.50
2018-12-01T14:54:53.948Z,9.50
2018-12-01T14:57:28.793Z,9.30
2018-12-01T15:00:03.683Z,9.20
2018-12-01T15:02:37.732Z,9.20
2018-12-01T15:05:11.835Z,9.10
2018-12-01T15:07:45.901Z,9.20
2018-12-01T15:10:19.968Z,9.10
2018-12-01T15:12:54.098Z,9.00
2018-12-01T15:15:28.108Z,9.00
2018-12-01T15:18:02.121Z,9.10
2018-12-01T15:20:36.236Z,9.10
2018-12-01T15:23:10.356Z,9.20
2018-12-01T15:25:44.356Z,9.10
2018-12-01T15:28:18.556Z,9.10
2018-12-01T15:30:53.405Z,9.10
2018-12-01T15:33:27.575Z,9.10
2018-12-01T15:36:01.591Z,9.10
2018-12-01T15:38:35.731Z,9.00
2018-12-01T15:41:10.341Z,9.00
2018-12-01T15:43:44.316Z,9.00
2018-12-01T15:46:19.285Z,9.10
2018-12-01T15:48:54.270Z,9.10
2018-12-01T15:51:28.226Z,9.10
2018-12-01T15:54:02.309Z,9.10
2018-12-01T15:56:37.200Z,9.00
2018-12-01T15:59:12.029Z,9.00
2018-12-01T16:01:46.134Z,9.00
2018-12-01T16:05:05.692Z,9.00
2018-12-01T16:07:42.383Z,8.90
2018-12-01T16:10:18.861Z,8.90
2018-12-01T16:12:56.357Z,8.90
2018-12-01T16:15:31.547Z,9.00
2018-12-01T16:18:10.030Z,8.90
2018-12-01T16:20:46.429Z,8.90
2018-12-01T16:23:21.516Z,8.90
2018-12-01T16:25:57.707Z,8.90
2018-12-01T16:28:35.011Z,8.90
2018-12-01T16:31:10.897Z,8.90
2018-12-01T16:33:46.392Z,8.80
2018-12-01T16:36:23.081Z,8.80
2018-12-01T16:38:57.569Z,8.70
2018-12-01T16:41:34.861Z,8.70
2018-12-01T16:44:11.352Z,8.70
2018-12-01T16:46:50.530Z,8.70
2018-12-01T16:49:27.627Z,8.70
2018-12-01T16:52:05.030Z,8.70
2018-12-01T16:54:40.887Z,8.70
2018-12-01T16:57:23.674Z,8.70
2018-12-01T17:00:02.294Z,8.70
2018-12-01T17:02:46.680Z,8.70
2018-12-01T17:05:21.065Z,8.70
2018-12-01T17:07:59.052Z,8.70
2018-12-01T17:10:33.555Z,8.70
2018-12-01T17:13:12.541Z,8.70
2018-12-01T17:15:48.188Z,8.70
2018-12-01T17:18:24.638Z,8.70
2018-12-01T17:21:00.680Z,8.80
2018-12-01T17:23:34.790Z,8.80
2018-12-01T17:26:08.877Z,8.80
2018-12-01T17:28:42.897Z,8.80
2018-12-01T17:31:16.980Z,8.90
2018-12-01T17:33:51.161Z,8.90
2018-12-01T17:36:25.406Z,8.90
2018-12-01T17:38:59.411Z,8.90
2018-12-01T17:41:34.282Z,8.80
2018-12-01T17:44:12.342Z,8.90
2018-12-01T17:46:49.040Z,8.90
2018-12-01T17:49:23.880Z,8.90
2018-12-01T17:51:58.189Z,8.80
2018-12-01T17:54:33.149Z,8.70
2018-12-01T17:57:07.526Z,8.80
2018-12-01T17:59:42.532Z,8.80
2018-12-01T18:02:17.455Z,8.80
2018-12-01T18:04:51.676Z,8.80
2018-12-01T18:07:27.890Z,8.80
2018-12-01T18:10:02.519Z,8.80
2018-12-01T18:12:36.541Z,8.90
2018-12-01T18:15:10.608Z,8.80
2018-12-01T18:17:45.505Z,8.80
2018-12-01T18:20:20.489Z,8.80
2018-12-01T18:22:54.434Z,8.80
2018-12-01T18:25:28.560Z,8.70
2018-12-01T18:28:02.780Z,8.70
2018-12-01T18:30:36.879Z,8.70
2018-12-01T18:33:10.952Z,8.70
2018-12-01T18:35:45.315Z,8.70
2018-12-01T18:38:19.525Z,8.80
2018-12-01T18:40:53.732Z,8.70
2018-12-01T18:43:29.509Z,8.70
2018-12-01T18:46:04.624Z,8.80
2018-12-01T18:48:38.741Z,8.80
2018-12-01T18:51:12.984Z,8.80
2018-12-01T18:53:47.053Z,8.80
2018-12-01T18:56:21.123Z,8.80
2018-12-01T18:58:55.100Z,8.80
2018-12-01T19:01:29.201Z,8.90
2018-12-01T19:04:03.336Z,8.80
2018-12-01T19:06:38.032Z,8.80
2018-12-01T19:09:12.758Z,8.70
2018-12-01T19:11:46.848Z,8.70
2018-12-01T19:14:22.089Z,8.70
2018-12-01T19:16:58.441Z,8.70
2018-12-01T19:19:32.381Z,8.80
2018-12-01T19:22:06.594Z,8.70
2018-12-01T19:24:41.357Z,8.80
2018-12-01T19:27:15.431Z,8.80
2018-12-01T19:29:49.603Z,8.80
2018-12-01T19:32:23.641Z,8.70
2018-12-01T19:34:57.680Z,8.70
2018-12-01T19:37:31.834Z,8.70
2018-12-01T19:40:06.114Z,8.80
2018-12-01T19:42:40.203Z,8.80
2018-12-01T19:45:14.228Z,8.80
2018-12-01T19:47:48.326Z,8.80
2018-12-01T19:50:22.496Z,8.90
2018-12-01T19:52:57.416Z,8.90
2018-12-01T19:55:32.584Z,8.90
2018-12-01T19:58:05.597Z,8.90
2018-12-01T20:00:39.677Z,9.00
2018-12-01T20:03:13.835Z,8.90
2018-12-01T20:05:47.749Z,8.90
2018-12-01T20:08:21.887Z,8.90
2018-12-01T20:10:55.927Z,9.00
2018-12-01T20:13:29.990Z,9.00
2018-12-01T20:16:04.226Z,9.00
2018-12-01T20:18:38.927Z,9.00
2018-12-01T20:21:13.121Z,9.00
2018-12-01T20:23:47.096Z,8.90
2018-12-01T20:26:22.034Z,9.00
2018-12-01T20:28:56.117Z,9.00
2018-12-01T20:31:30.110Z,9.10
2018-12-01T20:34:04.864Z,9.00
2018-12-01T20:36:38.891Z,9.00
2018-12-01T20:39:13.008Z,9.00
2018-12-01T20:41:47.932Z,9.00
2018-12-01T20:44:22.072Z,9.00
2018-12-01T20:46:56.316Z,9.00
2018-12-01T20:49:30.475Z,9.00
2018-12-01T20:52:04.573Z,9.00
2018-12-01T20:54:38.683Z,9.00
2018-12-01T20:57:12.824Z,9.00
2018-12-01T20:59:46.993Z,9.00
2018-12-01T21:02:21.244Z,9.00
2018-12-01T21:04:55.384Z,9.00
2018-12-01T21:07:29.563Z,9.00
2018-12-01T21:10:03.655Z,9.00
2018-12-01T21:12:37.628Z,9.00
2018-12-01T21:15:11.602Z,9.00
2018-12-01T21:17:46.536Z,9.00
2018-12-01T21:20:21.369Z,9.00
2018-12-01T21:22:55.500Z,9.00
2018-12-01T21:25:29.729Z,9.00
2018-12-01T21:28:03.764Z,9.00
2018-12-01T21:30:37.963Z,9.00
2018-12-01T21:33:12.165Z,9.00
2018-12-01T21:35:46.356Z,9.00
2018-12-01T21:38:20.372Z,9.00
2018-12-01T21:40:54.543Z,9.00
2018-12-01T21:43:28.660Z,9.00
2018-12-01T21:46:02.710Z,9.00
2018-12-01T21:48:37.441Z,9.00
2018-12-01T21:51:11.531Z,9.00
2018-12-01T21:53:45.633Z,9.00
2018-12-01T21:56:20.510Z,9.10
2018-12-01T21:58:54.598Z,9.10
2018-12-01T22:01:28.787Z,9.10
2018-12-01T22:04:03.001Z,9.10
2018-12-01T22:06:37.070Z,9.10
2018-12-01T22:09:11.174Z,9.10
2018-12-01T22:11:45.260Z,9.10
2018-12-01T22:14:19.305Z,9.10
2018-12-01T22:16:54.216Z,9.10
2018-12-01T22:19:28.345Z,9.10
2018-12-01T22:22:02.381Z,9.10
2018-12-01T22:24:36.379Z,9.10
2018-12-01T22:27:10.384Z,9.10
2018-12-01T22:29:44.393Z,9.10
2018-12-01T22:32:18.364Z,9.10
2018-12-01T22:34:52.441Z,9.20
2018-12-01T22:37:26.521Z,9.20
2018-12-01T22:40:00.654Z,9.20
2018-12-01T22:42:34.824Z,9.20
2018-12-01T22:45:09.604Z,9.20
2018-12-01T22:47:43.850Z,9.20
2018-12-01T22:50:18.383Z,9.20
2018-12-01T22:52:53.277Z,9.10
2018-12-01T22:55:28.118Z,9.20
2018-12-01T22:58:02.817Z,9.20
2018-12-01T23:00:37.715Z,9.20
2018-12-01T23:03:11.848Z,9.20
2018-12-01T23:05:45.893Z,9.20
2018-12-01T23:08:19.816Z,9.20
2018-12-01T23:10:53.769Z,9.30
2018-12-01T23:13:27.947Z,9.20
2018-12-01T23:16:02.661Z,9.20
2018-12-01T23:18:36.741Z,9.20
2018-12-01T23:21:10.744Z,9.20
2018-12-01T23:23:44.846Z,9.30
2018-12-01T23:26:19.771Z,9.20
2018-12-01T23:28:53.752Z,9.20
2018-12-01T23:31:27.919Z,9.20
2018-12-01T23:34:02.076Z,9.30
2018-12-01T23:36:36.079Z,9.20
2018-12-01T23:39:10.064Z,9.20
2018-12-01T23:41:44.153Z,9.20
2018-12-01T23:44:18.291Z,9.20
2018-12-01T23:46:52.285Z,9.10
2018-12-01T23:49:26.332Z,9.10
2018-12-01T23:52:00.414Z,9.10
2018-12-01T23:54:34.527Z,9.10
2018-12-01T23:57:08.625Z,9.10
2018-12-01T23:59:42.671Z,9.10
